Time;durP1;ratioP1;P1;durP2;ratioP2;P2;SDS_P1;SDS_P2;PMS_P1;PMS_P2;Temp;Humidity;BMP_temperature;BMP_pressure;BME280_temperature;BME280_humidity;BME280_pressure;Samples;Min_cycle;Max_cycle;Signal;HPM_P1;HPM_P2
2022/04/12 00:00:36;;;;;;;9.07;4.30;;;7.70;99.90;;;;;;15605937;22;20023;-83
2022/04/12 00:06:38;;;;;;;9.98;4.32;;;7.70;99.90;;;;;;15637126;22;20374;-83
2022/04/12 00:12:40;;;;;;;6.57;4.00;;;7.60;99.90;;;;;;15606994;22;20084;-83
2022/04/12 00:25:03;;;;;;;9.88;4.65;;;7.50;99.90;;;;;;15632946;22;20098;-86
2022/04/12 00:31:05;;;;;;;7.70;4.40;;;7.30;99.90;;;;;;15606834;22;20050;-83
2022/04/12 00:37:07;;;;;;;8.15;4.40;;;7.10;99.90;;;;;;15606835;22;20026;-83
2022/04/12 00:43:09;;;;;;;7.70;4.15;;;7.00;99.90;;;;;;15635915;22;20089;-86
2022/04/12 00:49:11;;;;;;;7.50;4.10;;;7.00;99.90;;;;;;15608479;22;20066;-84
2022/04/12 00:55:13;;;;;;;8.80;5.00;;;6.90;99.90;;;;;;15604595;22;20042;-86
2022/04/12 01:01:16;;;;;;;10.38;4.60;;;6.90;99.90;;;;;;15608244;22;20565;-83
2022/04/12 01:07:19;;;;;;;12.80;5.40;;;6.90;99.90;;;;;;15631440;22;20054;-83
2022/04/12 01:13:20;;;;;;;8.82;4.93;;;6.80;99.90;;;;;;15608159;22;20047;-83
2022/04/12 01:19:24;;;;;;;10.43;4.63;;;6.70;99.90;;;;;;15635323;22;20034;-83
2022/04/12 01:25:26;;;;;;;11.35;4.75;;;6.70;99.90;;;;;;15609145;22;20046;-83
2022/04/12 01:31:27;;;;;;;7.57;4.50;;;6.70;99.90;;;;;;15635874;22;20027;-83
2022/04/12 01:37:29;;;;;;;12.52;5.03;;;6.70;99.90;;;;;;15635483;22;20541;-83
2022/04/12 01:43:34;;;;;;;7.70;4.53;;;6.70;99.90;;;;;;15606316;22;20027;-86
2022/04/12 01:49:36;;;;;;;14.18;5.10;;;6.60;99.90;;;;;;15605615;22;20558;-85
2022/04/12 01:55:38;;;;;;;8.65;5.55;;;6.70;99.90;;;;;;15634018;22;20403;-86
2022/04/12 02:01:40;;;;;;;9.73;4.80;;;6.60;99.90;;;;;;15612391;22;20455;-83
2022/04/12 02:07:45;;;;;;;8.98;5.10;;;6.60;99.90;;;;;;15610050;22;20022;-82
2022/04/12 02:13:46;;;;;;;8.82;4.97;;;6.60;99.90;;;;;;15624434;22;20023;-86
2022/04/12 02:19:48;;;;;;;8.05;4.53;;;6.60;99.90;;;;;;15638205;22;20030;-86
2022/04/12 02:25:50;;;;;;;9.57;4.65;;;6.80;99.90;;;;;;15609844;22;20026;-86
2022/04/12 02:31:52;;;;;;;12.25;5.80;;;6.90;99.90;;;;;;15628072;22;20042;-86
2022/04/12 02:37:54;;;;;;;7.93;4.45;;;7.00;99.90;;;;;;15631698;22;20110;-86
2022/04/12 02:43:56;;;;;;;7.93;4.30;;;7.10;99.90;;;;;;15631058;22;20088;-83
2022/04/12 02:49:58;;;;;;;8.00;4.20;;;7.00;99.90;;;;;;15605331;22;20051;-83
2022/04/12 02:56:00;;;;;;;10.23;4.97;;;6.90;99.90;;;;;;15606981;22;20034;-85
2022/04/12 03:02:02;;;;;;;8.80;4.40;;;6.90;99.90;;;;;;15601343;22;20471;-86
2022/04/12 03:08:05;;;;;;;7.65;4.15;;;6.90;99.90;;;;;;15630744;22;20023;-83
2022/04/12 03:14:08;;;;;;;7.90;4.25;;;7.00;99.90;;;;;;15609017;22;20047;-85
2022/04/12 03:20:10;;;;;;;7.63;3.97;;;7.00;99.90;;;;;;15603743;22;20065;-83
2022/04/12 03:26:12;;;;;;;8.38;4.30;;;7.00;99.90;;;;;;15610623;22;20098;-86
2022/04/12 03:32:14;;;;;;;9.10;4.95;;;7.00;99.90;;;;;;15636067;22;20162;-86
2022/04/12 03:38:16;;;;;;;7.90;4.70;;;7.00;99.90;;;;;;15635867;22;20108;-86
2022/04/12 03:44:18;;;;;;;7.38;4.53;;;6.70;99.90;;;;;;15612725;22;20067;-86
2022/04/12 03:50:22;;;;;;;7.30;4.65;;;6.40;99.90;;;;;;15608926;22;20486;-86
2022/04/12 03:56:24;;;;;;;8.20;4.53;;;6.10;99.90;;;;;;15610426;22;20055;-83
2022/04/12 04:02:26;;;;;;;9.05;4.85;;;5.90;99.90;;;;;;15608101;22;20055;-86
2022/04/12 04:08:28;;;;;;;8.68;4.30;;;5.80;99.90;;;;;;15638019;22;20498;-86
2022/04/12 04:14:31;;;;;;;8.82;4.35;;;6.10;99.90;;;;;;15637066;22;20786;-83
2022/04/12 04:20:33;;;;;;;9.50;5.13;;;6.20;99.90;;;;;;15635740;22;20100;-83
2022/04/12 04:26:35;;;;;;;7.47;4.43;;;6.20;99.90;;;;;;15503432;22;20130;-86
2022/04/12 04:32:38;;;;;;;7.75;4.60;;;6.00;99.90;;;;;;15483598;22;20452;-83
2022/04/12 04:38:40;;;;;;;7.40;5.03;;;5.80;99.90;;;;;;15480999;23;20095;-85
2022/04/12 04:44:42;;;;;;;10.68;4.85;;;5.60;99.90;;;;;;15476829;23;20097;-86
2022/04/12 04:50:44;;;;;;;8.93;4.53;;;5.50;99.90;;;;;;15478493;22;20043;-83
2022/04/12 04:56:48;;;;;;;10.40;4.45;;;5.60;99.90;;;;;;15483777;23;20087;-83
2022/04/12 05:02:51;;;;;;;8.48;3.95;;;5.90;99.90;;;;;;15477406;22;20476;-85
2022/04/12 05:08:53;;;;;;;8.55;3.80;;;6.30;99.90;;;;;;15487283;23;20094;-83
2022/04/12 05:14:55;;;;;;;6.78;3.80;;;6.60;99.90;;;;;;15487516;22;20024;-85
2022/04/12 05:20:57;;;;;;;7.80;4.35;;;7.00;99.90;;;;;;15498685;22;20020;-82
2022/04/12 05:26:59;;;;;;;9.73;4.30;;;7.20;99.90;;;;;;15484507;22;20097;-85
2022/04/12 05:33:00;;;;;;;6.50;3.80;;;7.70;99.90;;;;;;15480920;22;20360;-86
2022/04/12 05:39:02;;;;;;;6.82;4.03;;;8.00;99.90;;;;;;15489006;23;20440;-83
2022/04/12 05:45:05;;;;;;;6.00;3.45;;;8.00;99.90;;;;;;15484155;23;20698;-83
2022/04/12 05:51:07;;;;;;;7.35;4.07;;;8.10;99.90;;;;;;15486201;22;20032;-83
2022/04/12 05:57:10;;;;;;;6.45;4.00;;;8.00;99.90;;;;;;15488404;22;20024;-83
2022/04/12 06:03:11;;;;;;;7.15;4.35;;;7.90;99.90;;;;;;15485059;22;20028;-83
2022/04/12 06:09:13;;;;;;;7.68;4.50;;;8.20;99.90;;;;;;15479708;23;20062;-83
2022/04/12 06:15:16;;;;;;;7.15;3.72;;;8.20;99.90;;;;;;15481609;22;20023;-83
2022/04/12 06:21:21;;;;;;;7.57;4.70;;;8.50;99.90;;;;;;15485529;22;20058;-85
2022/04/12 06:27:34;;;;;;;9.77;3.97;;;8.80;99.90;;;;;;15481069;22;20384;-83
2022/04/12 06:33:36;;;;;;;9.10;4.32;;;8.80;99.90;;;;;;15477197;22;20095;-85
2022/04/12 06:39:38;;;;;;;12.15;4.63;;;8.90;99.90;;;;;;15476727;23;20154;-83
2022/04/12 06:45:40;;;;;;;7.57;4.45;;;9.00;99.90;;;;;;15476660;23;20476;-86
2022/04/12 06:51:42;;;;;;;8.48;4.50;;;9.40;99.90;;;;;;15478919;22;20047;-85
2022/04/12 06:57:44;;;;;;;8.95;4.40;;;10.00;99.90;;;;;;15477062;23;20051;-85
2022/04/12 07:03:45;;;;;;;12.40;5.00;;;10.40;99.90;;;;;;15476009;22;20111;-85
2022/04/12 07:09:47;;;;;;;8.80;4.07;;;10.80;99.90;;;;;;15486504;23;20161;-85
2022/04/12 07:15:50;;;;;;;8.07;4.57;;;11.00;99.90;;;;;;15483473;22;20024;-84
2022/04/12 07:21:53;;;;;;;9.95;4.68;;;11.20;99.90;;;;;;15481358;22;20027;-86
2022/04/12 07:27:54;;;;;;;8.30;4.40;;;11.50;99.90;;;;;;15620109;22;20132;-83
2022/04/12 07:33:56;;;;;;;8.77;5.07;;;11.80;99.90;;;;;;15602700;22;20037;-86
2022/04/12 07:39:58;;;;;;;7.38;4.50;;;12.00;99.90;;;;;;15606648;22;20156;-83
2022/04/12 07:46:00;;;;;;;9.50;4.88;;;12.00;99.90;;;;;;15632844;22;20023;-86
2022/04/12 07:52:21;;;;;;;9.60;4.43;;;12.40;99.90;;;;;;15607377;22;20091;-85
2022/04/12 07:58:23;;;;;;;8.93;4.43;;;12.70;99.90;;;;;;15633477;22;20511;-85
2022/04/12 08:04:31;;;;;;;11.20;4.95;;;12.90;99.90;;;;;;15636769;22;20019;-86
2022/04/12 08:10:36;;;;;;;8.27;5.13;;;13.10;99.90;;;;;;15608235;22;20015;-84
2022/04/12 08:16:38;;;;;;;9.23;5.10;;;13.10;99.90;;;;;;15610376;22;20104;-85
2022/04/12 08:22:41;;;;;;;9.45;4.85;;;12.70;99.90;;;;;;15634274;22;20554;-83
2022/04/12 08:28:50;;;;;;;12.73;5.35;;;12.70;99.90;;;;;;15608606;22;20090;-86
2022/04/12 08:34:53;;;;;;;8.55;5.05;;;13.10;99.90;;;;;;15610517;22;20586;-84
2022/04/12 08:40:56;;;;;;;8.10;4.97;;;13.50;99.90;;;;;;15633104;22;20098;-84
2022/04/12 08:47:00;;;;;;;11.02;5.25;;;13.80;99.90;;;;;;15655517;22;20448;-85
2022/04/12 08:53:03;;;;;;;10.73;5.55;;;13.90;99.90;;;;;;15647233;22;20101;-87
2022/04/12 08:59:05;;;;;;;10.02;5.22;;;14.00;99.90;;;;;;15635071;22;20073;-84
2022/04/12 09:05:12;;;;;;;10.80;5.18;;;14.50;99.90;;;;;;15628333;22;20089;-84
2022/04/12 09:11:16;;;;;;;15.25;5.63;;;15.00;99.90;;;;;;15646646;22;20098;-83
2022/04/12 09:17:41;;;;;;;9.80;5.03;;;15.20;99.90;;;;;;15636520;22;20447;-87
2022/04/12 09:23:51;;;;;;;8.43;4.75;;;15.20;99.90;;;;;;15655227;22;20106;-84
2022/04/12 09:29:56;;;;;;;10.65;5.18;;;15.60;99.90;;;;;;15636361;22;20029;-87
2022/04/12 09:36:01;;;;;;;11.25;5.50;;;16.00;99.90;;;;;;15633091;22;20022;-86
2022/04/12 09:42:03;;;;;;;9.85;5.57;;;16.10;99.90;;;;;;15601461;22;20112;-84
2022/04/12 09:48:08;;;;;;;8.90;5.20;;;16.00;99.90;;;;;;15630182;22;20559;-87
2022/04/12 09:54:34;;;;;;;10.50;5.32;;;15.90;99.90;;;;;;15606722;22;20023;-85
2022/04/12 10:00:38;;;;;;;10.75;5.60;;;16.20;99.90;;;;;;15604158;22;20027;-85
2022/04/12 10:06:41;;;;;;;9.70;5.47;;;16.40;99.90;;;;;;15609802;22;20534;-84
2022/04/12 10:12:43;;;;;;;8.63;5.53;;;16.80;99.90;;;;;;15639875;22;20027;-87
2022/04/12 10:18:46;;;;;;;12.57;5.72;;;17.00;99.90;;;;;;15630706;22;20050;-85
2022/04/12 10:24:48;;;;;;;8.65;5.78;;;17.20;99.90;;;;;;15603802;22;20057;-86
2022/04/12 10:30:50;;;;;;;13.73;6.57;;;17.30;99.90;;;;;;15602347;22;20414;-86
2022/04/12 10:37:07;;;;;;;9.63;6.20;;;17.30;99.90;;;;;;15602301;22;20104;-87
2022/04/12 10:43:36;;;;;;;12.00;5.93;;;17.50;99.90;;;;;;15631618;22;20093;-88
2022/04/12 10:49:44;;;;;;;12.10;5.60;;;17.70;99.90;;;;;;15629476;22;20026;-84
2022/04/12 10:55:46;;;;;;;8.45;4.93;;;17.90;99.90;;;;;;15606011;22;20030;-84
2022/04/12 11:01:48;;;;;;;11.90;5.38;;;18.50;99.90;;;;;;15629903;22;20062;-84
2022/04/12 11:07:50;;;;;;;9.38;5.75;;;18.70;99.90;;;;;;15604253;22;20034;-84
2022/04/12 11:13:53;;;;;;;8.57;5.45;;;18.30;99.90;;;;;;15605643;22;20842;-85
2022/04/12 11:19:57;;;;;;;10.60;5.80;;;18.40;99.90;;;;;;15602394;22;20047;-88
2022/04/12 11:26:26;;;;;;;9.40;5.57;;;18.50;99.90;;;;;;15601439;22;20031;-87
2022/04/12 11:32:31;;;;;;;10.50;4.72;;;18.40;99.90;;;;;;15629048;22;20030;-84
2022/04/12 11:38:36;;;;;;;9.30;5.53;;;18.40;99.90;;;;;;15634706;22;20097;-86
2022/04/12 11:44:38;;;;;;;10.60;5.18;;;18.80;99.90;;;;;;15603068;22;20537;-84
2022/04/12 11:50:49;;;;;;;9.73;5.07;;;18.70;99.90;;;;;;15608897;22;20546;-85
2022/04/12 11:56:58;;;;;;;8.90;5.03;;;18.90;99.90;;;;;;15623509;22;20058;-86
2022/04/12 12:02:59;;;;;;;8.95;5.30;;;19.10;99.90;;;;;;15609380;22;20023;-83
2022/04/12 12:09:02;;;;;;;8.90;4.80;;;19.30;99.90;;;;;;15605721;22;20089;-87
2022/04/12 12:15:25;;;;;;;9.30;4.80;;;19.40;99.90;;;;;;15630632;22;20019;-87
2022/04/12 12:21:30;;;;;;;8.35;4.63;;;19.70;99.90;;;;;;15628460;22;20457;-86
2022/04/12 12:27:36;;;;;;;8.63;4.78;;;20.00;99.90;;;;;;15637507;22;20027;-85
2022/04/12 12:33:43;;;;;;;6.35;4.32;;;19.90;99.90;;;;;;15625998;22;20038;-83
2022/04/12 12:39:44;;;;;;;6.57;4.50;;;19.80;99.90;;;;;;15603100;22;20019;-84
2022/04/12 12:45:46;;;;;;;6.90;4.55;;;20.30;99.90;;;;;;15603427;22;20073;-87
2022/04/12 12:51:50;;;;;;;6.97;3.95;;;20.20;99.90;;;;;;15606397;22;20019;-84
2022/04/12 12:57:54;;;;;;;5.38;3.60;;;20.30;99.90;;;;;;15603441;22;20094;-86
2022/04/12 13:03:55;;;;;;;6.80;3.90;;;20.20;99.90;;;;;;15601344;22;20080;-84
2022/04/12 13:10:06;;;;;;;5.85;3.80;;;20.20;99.90;;;;;;15630516;22;20065;-86
2022/04/12 13:16:08;;;;;;;6.15;3.67;;;20.20;99.90;;;;;;15602583;22;20065;-85
2022/04/12 13:22:12;;;;;;;7.15;3.60;;;19.90;99.90;;;;;;15606356;22;20092;-85
2022/04/12 13:28:14;;;;;;;8.27;3.30;;;20.20;99.90;;;;;;15602146;22;20026;-85
2022/04/12 13:34:16;;;;;;;9.07;3.00;;;20.10;99.90;;;;;;15603494;22;20070;-85
2022/04/12 13:40:18;;;;;;;6.05;3.25;;;20.10;99.90;;;;;;15600916;22;20027;-85
2022/04/12 13:46:20;;;;;;;6.80;3.45;;;20.10;99.90;;;;;;15601618;22;20519;-86
2022/04/12 13:52:25;;;;;;;5.90;2.67;;;19.90;99.90;;;;;;15602279;22;20023;-85
2022/04/12 13:58:27;;;;;;;4.55;2.58;;;19.50;99.90;;;;;;15623180;22;20379;-86
2022/04/12 14:04:28;;;;;;;5.25;2.90;;;19.70;99.90;;;;;;15631514;22;20100;-85
2022/04/12 14:10:30;;;;;;;4.75;2.65;;;19.70;99.90;;;;;;15631573;22;20043;-86
2022/04/12 14:16:32;;;;;;;5.75;3.30;;;20.00;99.90;;;;;;15605781;22;20544;-87
2022/04/12 14:22:35;;;;;;;5.25;3.03;;;20.00;99.90;;;;;;15603756;22;20027;-85
2022/04/12 14:28:38;;;;;;;7.00;3.50;;;20.20;99.90;;;;;;15609643;22;20034;-86
2022/04/12 14:34:39;;;;;;;5.90;3.40;;;19.90;99.90;;;;;;15655509;22;20023;-86
2022/04/12 14:40:43;;;;;;;7.15;3.70;;;19.60;99.90;;;;;;15630443;22;20054;-86
2022/04/12 14:46:48;;;;;;;7.40;3.37;;;19.20;99.90;;;;;;15626782;22;20027;-87
2022/04/12 14:52:50;;;;;;;7.88;3.70;;;19.00;99.90;;;;;;15627818;22;20023;-85
2022/04/12 14:58:52;;;;;;;7.93;3.83;;;18.80;99.90;;;;;;15601789;22;20496;-85
2022/04/12 15:04:54;;;;;;;8.95;4.10;;;18.90;99.90;;;;;;15600609;22;20131;-86
2022/04/12 15:10:56;;;;;;;5.75;3.40;;;18.90;99.90;;;;;;15628717;22;20027;-86
2022/04/12 15:16:58;;;;;;;8.48;3.97;;;18.80;99.90;;;;;;15602065;22;20023;-84
2022/04/12 15:23:00;;;;;;;9.77;3.97;;;18.80;99.90;;;;;;15612559;22;20098;-86
2022/04/12 15:29:03;;;;;;;6.03;3.50;;;18.90;99.90;;;;;;15616414;22;20086;-87
2022/04/12 15:35:09;;;;;;;6.07;3.37;;;18.90;99.90;;;;;;15607955;22;20468;-86
2022/04/12 15:41:12;;;;;;;5.75;3.50;;;19.20;99.90;;;;;;15632422;22;20031;-86
2022/04/12 15:47:13;;;;;;;8.63;4.18;;;19.20;99.90;;;;;;15608117;22;20031;-87
2022/04/12 15:53:15;;;;;;;8.13;3.50;;;19.30;99.90;;;;;;15606351;22;20695;-88
2022/04/12 15:59:17;;;;;;;9.05;3.67;;;19.30;99.90;;;;;;15609084;22;20800;-88
2022/04/12 16:05:19;;;;;;;8.05;4.05;;;19.30;99.90;;;;;;15632800;22;20020;-87
2022/04/12 16:11:21;;;;;;;9.70;3.55;;;19.50;99.90;;;;;;15599258;22;20469;-85
2022/04/12 16:17:23;;;;;;;5.95;3.17;;;19.30;99.90;;;;;;15609074;22;20023;-85
2022/04/12 16:23:25;;;;;;;7.68;3.15;;;19.30;99.90;;;;;;15600409;22;20476;-87
2022/04/12 16:29:27;;;;;;;9.30;3.92;;;19.10;99.90;;;;;;15631279;22;20050;-86
2022/04/12 16:35:29;;;;;;;7.43;3.92;;;19.00;99.90;;;;;;15606058;22;20098;-84
2022/04/12 16:41:31;;;;;;;7.70;4.07;;;19.00;99.90;;;;;;15632306;22;20578;-84
2022/04/12 16:47:33;;;;;;;6.18;4.00;;;18.90;99.90;;;;;;15632132;22;20027;-84
2022/04/12 16:53:35;;;;;;;7.72;4.35;;;18.70;99.90;;;;;;15632340;22;20109;-85
2022/04/12 16:59:37;;;;;;;7.90;4.95;;;18.60;99.90;;;;;;15632847;22;20034;-84
2022/04/12 17:05:38;;;;;;;6.05;3.55;;;18.50;99.90;;;;;;15600063;22;20080;-85
2022/04/12 17:11:40;;;;;;;7.18;3.70;;;18.30;99.90;;;;;;15624053;22;20023;-84
2022/04/12 17:17:42;;;;;;;6.78;3.50;;;18.20;99.90;;;;;;15604350;22;20019;-86
2022/04/12 17:23:44;;;;;;;8.18;4.57;;;18.10;99.90;;;;;;15633100;22;20070;-87
2022/04/12 17:29:46;;;;;;;6.82;4.32;;;18.00;99.90;;;;;;15606935;22;20059;-84
2022/04/12 17:35:49;;;;;;;8.45;4.65;;;17.80;99.90;;;;;;15628561;22;20454;-85
2022/04/12 17:41:51;;;;;;;7.53;4.60;;;17.60;99.90;;;;;;15601006;22;20492;-84
2022/04/12 17:47:53;;;;;;;6.43;4.00;;;17.40;99.90;;;;;;15637564;22;20112;-85
2022/04/12 17:53:55;;;;;;;11.48;5.78;;;17.30;99.90;;;;;;15628462;22;20055;-86
2022/04/12 17:59:57;;;;;;;8.02;5.22;;;17.10;99.90;;;;;;15604199;22;20093;-86
2022/04/12 18:06:04;;;;;;;10.10;5.70;;;16.90;99.90;;;;;;15601324;22;20023;-85
2022/04/12 18:12:06;;;;;;;9.77;5.38;;;16.70;99.90;;;;;;15627905;22;20073;-84
2022/04/12 18:18:08;;;;;;;10.82;5.88;;;16.50;99.90;;;;;;15634264;22;20023;-85
2022/04/12 18:24:10;;;;;;;11.18;5.40;;;16.30;99.90;;;;;;15602345;22;20094;-84
2022/04/12 18:30:12;;;;;;;8.95;5.38;;;16.10;99.90;;;;;;15604340;22;20043;-87
2022/04/12 18:36:14;;;;;;;7.97;5.50;;;15.90;99.90;;;;;;15632665;22;20023;-83
2022/04/12 18:42:17;;;;;;;8.27;5.78;;;15.60;99.90;;;;;;15602544;22;20054;-86
2022/04/12 18:48:21;;;;;;;9.27;5.50;;;15.30;99.90;;;;;;15605639;22;20129;-86
2022/04/12 18:54:22;;;;;;;11.20;5.80;;;15.30;99.90;;;;;;15605516;22;20057;-86
2022/04/12 19:00:24;;;;;;;10.55;5.85;;;15.10;99.90;;;;;;15605583;22;20030;-83
2022/04/12 19:06:26;;;;;;;8.82;5.47;;;15.00;99.90;;;;;;15604658;22;20032;-87
2022/04/12 19:12:28;;;;;;;11.93;6.13;;;15.10;99.90;;;;;;15605436;22;20097;-84
2022/04/12 19:18:30;;;;;;;8.63;5.85;;;15.10;99.90;;;;;;15606766;22;20105;-84
2022/04/12 19:24:32;;;;;;;9.65;6.10;;;15.00;99.90;;;;;;15624224;22;20042;-88
2022/04/12 19:30:53;;;;;;;10.80;5.95;;;14.90;99.90;;;;;;15628493;22;20026;-87
2022/04/12 19:36:55;;;;;;;7.57;4.97;;;15.00;99.90;;;;;;15636415;22;20023;-85
2022/04/12 19:42:56;;;;;;;7.30;4.95;;;14.90;99.90;;;;;;15601258;22;20027;-85
2022/04/12 19:49:00;;;;;;;7.63;4.50;;;14.80;99.90;;;;;;15633255;22;20027;-85
2022/04/12 19:55:02;;;;;;;8.00;4.53;;;14.90;99.90;;;;;;15631965;22;20554;-85
2022/04/12 20:01:07;;;;;;;9.10;4.30;;;14.90;99.90;;;;;;15604271;22;20102;-88
2022/04/12 20:07:09;;;;;;;6.43;3.72;;;14.80;99.90;;;;;;15611099;22;20030;-85
2022/04/12 20:13:10;;;;;;;8.85;3.75;;;14.70;99.90;;;;;;15636599;22;20116;-85
2022/04/12 20:19:12;;;;;;;6.55;3.65;;;14.60;99.90;;;;;;15607890;22;20023;-84
2022/04/12 20:25:15;;;;;;;8.80;3.58;;;14.70;99.90;;;;;;15637882;22;20051;-87
2022/04/12 20:31:17;;;;;;;5.43;3.15;;;14.50;99.90;;;;;;15614614;22;20027;-85
2022/04/12 20:37:20;;;;;;;7.50;3.35;;;14.60;99.90;;;;;;15633697;22;20034;-86
2022/04/12 20:43:21;;;;;;;6.25;3.40;;;14.70;99.90;;;;;;15637161;22;20094;-87
2022/04/12 20:49:24;;;;;;;6.53;3.00;;;15.00;99.90;;;;;;15607321;22;20031;-87
2022/04/12 20:55:26;;;;;;;5.78;2.90;;;15.00;99.90;;;;;;15609717;22;20050;-85
2022/04/12 21:01:28;;;;;;;5.05;3.10;;;15.00;99.90;;;;;;15635922;22;20151;-85
2022/04/12 21:07:30;;;;;;;6.03;3.20;;;15.10;99.90;;;;;;15609050;22;20026;-86
2022/04/12 21:13:32;;;;;;;4.50;2.33;;;15.10;99.90;;;;;;15634373;22;20034;-87
2022/04/12 21:19:35;;;;;;;5.95;2.60;;;15.00;99.90;;;;;;15607173;22;20034;-84
2022/04/12 21:25:37;;;;;;;5.13;2.38;;;15.10;99.90;;;;;;15634361;22;20427;-83
2022/04/12 21:31:39;;;;;;;4.72;2.45;;;15.30;99.90;;;;;;15607890;22;20065;-85
2022/04/12 21:37:41;;;;;;;5.18;2.08;;;15.40;99.90;;;;;;15609001;22;20030;-85
2022/04/12 21:43:43;;;;;;;3.60;2.15;;;15.40;99.90;;;;;;15606645;22;20031;-84
2022/04/12 21:49:45;;;;;;;3.28;2.10;;;15.40;99.90;;;;;;15606350;22;20050;-85
2022/04/12 21:55:48;;;;;;;5.10;2.17;;;15.40;99.90;;;;;;15631763;22;20089;-84
2022/04/12 22:01:50;;;;;;;4.72;2.05;;;15.40;99.90;;;;;;15633658;22;20023;-86
2022/04/12 22:07:52;;;;;;;3.22;1.75;;;15.30;99.90;;;;;;15607130;22;20027;-86
2022/04/12 22:13:56;;;;;;;5.47;2.00;;;15.20;99.90;;;;;;15605348;22;20076;-85
2022/04/12 22:19:58;;;;;;;6.38;2.00;;;15.30;99.90;;;;;;15606982;22;20034;-84
2022/04/12 22:26:00;;;;;;;3.92;1.80;;;15.20;99.90;;;;;;15604086;22;20119;-84
2022/04/12 22:32:02;;;;;;;3.95;1.60;;;15.10;99.90;;;;;;15632042;22;20027;-85
2022/04/12 22:38:04;;;;;;;3.80;1.65;;;15.10;99.90;;;;;;15631549;22;20015;-87
2022/04/12 22:44:06;;;;;;;6.75;1.70;;;15.30;99.90;;;;;;15629146;22;20521;-87
2022/04/12 22:50:09;;;;;;;3.72;1.40;;;15.10;99.90;;;;;;15602936;22;20030;-86
2022/04/12 22:56:11;;;;;;;4.82;1.95;;;15.10;99.90;;;;;;15633358;22;20027;-87
2022/04/12 23:02:13;;;;;;;4.15;2.08;;;15.00;99.90;;;;;;15629704;22;20027;-84
2022/04/12 23:08:17;;;;;;;4.40;1.80;;;15.00;99.90;;;;;;15632542;22;20364;-86
2022/04/12 23:14:19;;;;;;;3.65;1.35;;;14.80;99.90;;;;;;15632487;22;20754;-89
2022/04/12 23:20:23;;;;;;;10.52;2.00;;;14.80;99.90;;;;;;15606719;22;20432;-85
2022/04/12 23:26:25;;;;;;;3.85;1.70;;;14.90;99.90;;;;;;15606497;22;20106;-88
2022/04/12 23:32:27;;;;;;;6.68;2.20;;;14.80;99.90;;;;;;15633059;22;20062;-88
2022/04/12 23:38:28;;;;;;;5.43;1.90;;;14.60;99.90;;;;;;15633561;22;20088;-88
2022/04/12 23:44:30;;;;;;;3.17;1.80;;;14.50;99.90;;;;;;15607957;22;20102;-88
2022/04/12 23:50:34;;;;;;;7.45;2.20;;;14.50;99.90;;;;;;15612138;22;20398;-85
2022/04/12 23:56:36;;;;;;;4.32;2.05;;;14.50;99.90;;;;;;15612598;22;20023;-85
